Time,TemperatureF,DewpointF,PressureIn,WindDirection,WindDirectionDegrees,WindSpeedMPH,WindSpeedGustMPH,Humidity,HourlyPrecipIn,Conditions,Clouds,dailyrainin,SoftwareType,DateUTC
2013-10-04 00:01:00,29.2,1.5,30.12,SSW,203,0.4,1.1,30,0.00,,,0.00,WUHU216HW,2013-10-04 06:01:00,
2013-10-04 00:06:00,29.2,1.5,30.12,SSW,203,0.4,0.7,30,0.00,,,0.00,WUHU216HW,2013-10-04 06:06:00,
2013-10-04 00:11:00,29.2,0.7,30.13,SSW,203,0.0,0.4,29,0.00,,,0.00,WUHU216HW,2013-10-04 06:11:00,
2013-10-04 00:16:00,29.0,0.6,30.13,SSW,203,0.4,0.4,29,0.00,,,0.00,WUHU216HW,2013-10-04 06:16:00,
2013-10-04 00:21:00,29.2,-1.9,30.13,SSW,203,0.0,0.4,26,0.00,,,0.00,WUHU216HW,2013-10-04 06:21:00,
2013-10-04 00:26:00,29.2,-1.9,30.13,SSW,203,0.0,0.4,26,0.00,,,0.00,WUHU216HW,2013-10-04 06:26:00,
2013-10-04 00:31:00,29.2,-1.9,30.13,SSW,203,0.0,0.0,26,0.00,,,0.00,WUHU216HW,2013-10-04 06:31:00,
2013-10-04 00:36:00,29.0,-2.0,30.13,SSW,203,0.0,0.2,26,0.00,,,0.00,WUHU216HW,2013-10-04 06:36:00,
2013-10-04 00:41:00,29.2,-3.6,30.13,SSW,203,0.0,0.2,24,0.00,,,0.00,WUHU216HW,2013-10-04 06:41:00,
2013-10-04 00:46:00,29.2,-3.6,30.13,SSW,203,0.0,0.0,24,0.00,,,0.00,WUHU216HW,2013-10-04 06:46:00,
2013-10-04 00:51:00,29.0,0.6,30.13,SSW,203,0.9,0.9,29,0.00,,,0.00,WUHU216HW,2013-10-04 06:51:00,
2013-10-04 00:56:00,29.0,-1.2,30.13,SSW,203,0.4,0.9,27,0.00,,,0.00,WUHU216HW,2013-10-04 06:56:00,
2013-10-04 01:01:00,28.8,-2.1,30.13,SSW,203,0.0,0.4,26,0.00,,,0.00,WUHU216HW,2013-10-04 07:01:00,
2013-10-04 01:06:00,28.8,-2.1,30.13,SSW,203,0.0,0.4,26,0.00,,,0.00,WUHU216HW,2013-10-04 07:06:00,
2013-10-04 01:11:00,29.0,-3.7,30.13,SSW,203,0.0,0.0,24,0.00,,,0.00,WUHU216HW,2013-10-04 07:11:00,
2013-10-04 01:16:00,28.8,-2.1,30.13,SSW,203,0.7,0.7,26,0.00,,,0.00,WUHU216HW,2013-10-04 07:16:00,
2013-10-04 01:21:00,28.8,-0.4,30.13,SSW,203,0.7,0.9,28,0.00,,,0.00,WUHU216HW,2013-10-04 07:21:00,
2013-10-04 01:26:00,28.6,0.2,30.13,SSW,203,0.4,0.9,29,0.00,,,0.00,WUHU216HW,2013-10-04 07:26:00,
2013-10-04 01:31:00,28.6,-1.4,30.13,SSW,203,0.4,0.7,27,0.00,,,0.00,WUHU216HW,2013-10-04 07:31:00,
2013-10-04 01:36:00,28.6,-4.0,30.14,SSW,203,0.0,0.4,24,0.00,,,0.00,WUHU216HW,2013-10-04 07:36:00,
2013-10-04 01:41:00,28.8,-4.7,30.14,SSW,203,0.0,0.4,23,0.00,,,0.00,WUHU216HW,2013-10-04 07:41:00,
2013-10-04 01:46:00,28.8,-4.7,30.14,SSW,203,0.0,0.0,23,0.00,,,0.00,WUHU216HW,2013-10-04 07:46:00,
2013-10-04 01:51:00,28.8,-3.9,30.14,SSW,203,0.0,0.0,24,0.00,,,0.00,WUHU216HW,2013-10-04 07:51:00,
2013-10-04 01:56:00,28.8,-3.9,30.14,SSW,203,0.0,0.0,24,0.00,,,0.00,WUHU216HW,2013-10-04 07:56:00,
2013-10-04 02:01:00,28.8,-4.7,30.14,SSW,203,0.0,0.0,23,0.00,,,0.00,WUHU216HW,2013-10-04 08:01:00,
2013-10-04 02:06:00,28.6,-1.4,30.14,SSW,203,0.9,0.9,27,0.00,,,0.00,WUHU216HW,2013-10-04 08:06:00,
2013-10-04 02:11:00,28.4,-0.8,30.14,SSW,203,0.4,0.9,28,0.00,,,0.00,WUHU216HW,2013-10-04 08:11:00,
2013-10-04 02:16:00,28.4,-1.6,30.14,SSW,203,0.0,0.4,27,0.00,,,0.00,WUHU216HW,2013-10-04 08:16:00,
2013-10-04 02:21:00,28.4,-4.1,30.14,SSW,203,0.0,0.4,24,0.00,,,0.00,WUHU216HW,2013-10-04 08:21:00,
2013-10-04 02:26:00,28.4,-4.1,30.14,SSW,203,0.0,0.0,24,0.00,,,0.00,WUHU216HW,2013-10-04 08:26:00,
2013-10-04 02:31:00,28.4,-4.1,30.14,SSW,203,0.4,0.4,24,0.00,,,0.00,WUHU216HW,2013-10-04 08:31:00,
2013-10-04 02:36:00,28.4,-1.6,30.15,SSW,203,0.4,0.9,27,0.00,,,0.00,WUHU216HW,2013-10-04 08:36:00,
2013-10-04 02:41:00,28.3,-1.0,30.15,SSW,203,0.4,0.9,28,0.00,,,0.00,WUHU216HW,2013-10-04 08:41:00,
2013-10-04 02:46:00,28.3,-1.8,30.15,SSW,203,0.2,0.7,27,0.00,,,0.00,WUHU216HW,2013-10-04 08:46:00,
2013-10-04 02:51:00,28.1,-2.0,30.15,SSW,203,0.9,0.9,27,0.00,,,0.00,WUHU216HW,2013-10-04 08:51:00,
2013-10-04 02:56:00,28.1,-0.3,30.15,SSW,203,0.0,0.9,29,0.00,,,0.00,WUHU216HW,2013-10-04 08:56:00,
2013-10-04 03:01:00,27.9,-1.2,30.15,SSW,203,0.0,0.9,28,0.00,,,0.00,WUHU216HW,2013-10-04 09:01:00,
2013-10-04 03:06:00,27.9,-3.0,30.15,SSW,203,0.4,0.4,26,0.00,,,0.00,WUHU216HW,2013-10-04 09:06:00,
2013-10-04 03:11:00,28.1,-5.3,30.15,SSW,203,0.2,0.4,23,0.00,,,0.00,WUHU216HW,2013-10-04 09:11:00,
2013-10-04 03:16:00,28.3,-4.3,30.15,SSW,203,0.4,0.4,24,0.00,,,0.00,WUHU216HW,2013-10-04 09:16:00,
2013-10-04 03:21:00,28.3,-5.1,30.15,SSW,203,0.0,0.4,23,0.00,,,0.00,WUHU216HW,2013-10-04 09:21:00,
2013-10-04 03:26:00,28.3,-6.0,30.15,SSW,203,0.0,0.4,22,0.00,,,0.00,WUHU216HW,2013-10-04 09:26:00,
2013-10-04 03:31:00,28.3,-6.0,30.15,SSW,203,0.0,0.0,22,0.00,,,0.00,WUHU216HW,2013-10-04 09:31:00,
2013-10-04 03:36:00,28.3,-6.8,30.15,SSW,203,0.0,0.0,21,0.00,,,0.00,WUHU216HW,2013-10-04 09:36:00,
2013-10-04 03:41:00,28.3,-2.6,30.15,SSW,203,0.4,0.4,26,0.00,,,0.00,WUHU216HW,2013-10-04 09:41:00,
2013-10-04 03:46:00,28.1,-1.1,30.15,SSW,203,0.4,0.7,28,0.00,,,0.00,WUHU216HW,2013-10-04 09:46:00,
2013-10-04 03:51:00,28.1,-1.1,30.15,SSW,203,0.2,0.7,28,0.00,,,0.00,WUHU216HW,2013-10-04 09:51:00,
2013-10-04 03:56:00,27.9,-1.2,30.15,SSW,203,0.0,0.4,28,0.00,,,0.00,WUHU216HW,2013-10-04 09:56:00,
2013-10-04 04:01:00,27.9,-2.1,30.15,SSW,203,0.0,0.2,27,0.00,,,0.00,WUHU216HW,2013-10-04 10:01:00,
2013-10-04 04:06:00,27.9,-3.8,30.15,SSW,203,0.0,0.0,25,0.00,,,0.00,WUHU216HW,2013-10-04 10:06:00,
2013-10-04 04:11:00,27.7,-3.0,30.15,SSW,203,0.0,0.0,26,0.00,,,0.00,WUHU216HW,2013-10-04 10:11:00,
2013-10-04 04:16:00,27.7,-2.2,30.15,SSW,203,0.0,0.0,27,0.00,,,0.00,WUHU216HW,2013-10-04 10:16:00,
2013-10-04 04:21:00,27.7,-3.0,30.15,SSW,203,0.7,0.7,26,0.00,,,0.00,WUHU216HW,2013-10-04 10:21:00,
2013-10-04 04:26:00,27.7,-3.0,30.15,SSW,203,0.2,0.7,26,0.00,,,0.00,WUHU216HW,2013-10-04 10:26:00,
2013-10-04 04:31:00,27.7,-4.0,30.16,SSW,203,0.0,0.7,25,0.00,,,0.00,WUHU216HW,2013-10-04 10:31:00,
2013-10-04 04:36:00,27.7,-3.0,30.15,SSW,203,0.4,0.7,26,0.00,,,0.00,WUHU216HW,2013-10-04 10:36:00,
2013-10-04 04:41:00,27.7,-4.8,30.16,SSW,203,0.0,0.7,24,0.00,,,0.00,WUHU216HW,2013-10-04 10:41:00,
2013-10-04 04:46:00,27.7,-5.6,30.15,SSW,203,0.0,0.4,23,0.00,,,0.00,WUHU216HW,2013-10-04 10:46:00,
2013-10-04 04:51:00,27.7,-4.8,30.16,SSW,203,0.4,0.4,24,0.00,,,0.00,WUHU216HW,2013-10-04 10:51:00,
2013-10-04 04:56:00,27.7,-3.0,30.16,SSW,203,0.0,0.4,26,0.00,,,0.00,WUHU216HW,2013-10-04 10:56:00,
2013-10-04 05:01:00,27.5,-4.1,30.15,SSW,203,0.0,0.2,25,0.00,,,0.00,WUHU216HW,2013-10-04 11:01:00,
2013-10-04 05:06:00,27.5,-4.9,30.16,SSW,203,0.7,0.7,24,0.00,,,0.00,WUHU216HW,2013-10-04 11:06:00,
2013-10-04 05:11:00,27.5,-5.7,30.16,SSW,203,0.0,0.7,23,0.00,,,0.00,WUHU216HW,2013-10-04 11:11:00,
2013-10-04 05:16:00,27.5,-5.7,30.16,SSW,203,0.4,0.4,23,0.00,,,0.00,WUHU216HW,2013-10-04 11:16:00,
2013-10-04 05:21:00,27.5,-5.7,30.16,SSW,203,0.0,0.4,23,0.00,,,0.00,WUHU216HW,2013-10-04 11:21:00,
2013-10-04 05:26:00,27.5,-5.7,30.16,SSW,203,0.7,0.7,23,0.00,,,0.00,WUHU216HW,2013-10-04 11:26:00,
2013-10-04 05:31:00,27.5,-5.7,30.15,SSW,203,0.0,0.7,23,0.00,,,0.00,WUHU216HW,2013-10-04 11:31:00,
2013-10-04 05:36:00,27.5,-5.7,30.15,SSW,203,0.9,0.9,23,0.00,,,0.00,WUHU216HW,2013-10-04 11:36:00,
2013-10-04 05:41:00,27.4,-5.9,30.16,SSW,203,0.2,0.9,23,0.00,,,0.00,WUHU216HW,2013-10-04 11:41:00,
2013-10-04 05:46:00,27.5,-5.7,30.16,SSW,203,0.7,0.9,23,0.00,,,0.00,WUHU216HW,2013-10-04 11:46:00,
2013-10-04 05:51:00,27.4,-5.9,30.16,SSW,203,0.0,0.7,23,0.00,,,0.00,WUHU216HW,2013-10-04 11:51:00,
2013-10-04 05:56:00,27.4,-5.0,30.16,SSW,203,0.0,0.7,24,0.00,,,0.00,WUHU216HW,2013-10-04 11:56:00,
2013-10-04 06:01:00,27.4,-5.9,30.16,SSW,203,0.7,0.7,23,0.00,,,0.00,WUHU216HW,2013-10-04 12:01:00,
2013-10-04 06:06:00,27.2,-5.2,30.16,SSW,203,0.4,0.7,24,0.00,,,0.00,WUHU216HW,2013-10-04 12:06:00,
2013-10-04 06:11:00,27.2,-5.2,30.16,SSW,203,0.0,0.7,24,0.00,,,0.00,WUHU216HW,2013-10-04 12:11:00,
2013-10-04 06:16:00,27.2,-5.2,30.17,SSW,203,0.4,0.7,24,0.00,,,0.00,WUHU216HW,2013-10-04 12:16:00,
2013-10-04 06:21:00,27.0,-5.4,30.17,SSW,203,0.0,0.4,24,0.00,,,0.00,WUHU216HW,2013-10-04 12:21:00,
2013-10-04 06:26:00,27.2,-6.9,30.17,SSW,203,0.0,0.4,22,0.00,,,0.00,WUHU216HW,2013-10-04 12:26:00,
2013-10-04 06:31:00,27.0,-6.2,30.17,SSW,203,0.0,0.7,23,0.00,,,0.00,WUHU216HW,2013-10-04 12:31:00,
2013-10-04 06:36:00,27.0,-6.2,30.17,SSW,203,0.4,0.7,23,0.00,,,0.00,WUHU216HW,2013-10-04 12:36:00,
2013-10-04 06:41:00,27.0,-7.0,30.17,SSW,203,0.0,0.4,22,0.00,,,0.00,WUHU216HW,2013-10-04 12:41:00,
2013-10-04 06:46:00,27.0,-6.2,30.17,SSW,203,0.4,0.7,23,0.00,,,0.00,WUHU216HW,2013-10-04 12:46:00,
2013-10-04 06:51:00,27.0,-7.0,30.17,SSW,203,0.0,0.7,22,0.00,,,0.00,WUHU216HW,2013-10-04 12:51:00,
2013-10-04 06:56:00,27.0,-6.2,30.17,SSW,203,0.4,0.7,23,0.00,,,0.00,WUHU216HW,2013-10-04 12:56:00,
2013-10-04 07:01:00,27.0,-6.2,30.17,SSW,203,0.4,0.7,23,0.00,,,0.00,WUHU216HW,2013-10-04 13:01:00,
2013-10-04 07:06:00,27.0,-7.0,30.17,SSW,203,0.2,0.4,22,0.00,,,0.00,WUHU216HW,2013-10-04 13:06:00,
2013-10-04 07:11:00,27.0,-7.0,30.17,SSW,203,0.7,0.7,22,0.00,,,0.00,WUHU216HW,2013-10-04 13:11:00,
2013-10-04 07:16:00,27.0,-6.2,30.17,SSW,203,0.2,0.7,23,0.00,,,0.00,WUHU216HW,2013-10-04 13:16:00,
2013-10-04 07:21:00,27.0,-7.0,30.18,SSW,203,0.0,0.4,22,0.00,,,0.00,WUHU216HW,2013-10-04 13:21:00,
2013-10-04 07:26:00,27.0,-7.0,30.17,SSW,203,0.4,0.4,22,0.00,,,0.00,WUHU216HW,2013-10-04 13:26:00,
2013-10-04 07:31:00,27.0,-6.2,30.17,SSW,203,0.4,0.4,23,0.00,,,0.00,WUHU216HW,2013-10-04 13:31:00,
2013-10-04 07:37:00,26.8,-6.4,30.18,SSW,203,0.0,0.4,23,0.00,,,0.00,WUHU216HW,2013-10-04 13:37:00,
2013-10-04 07:42:00,26.8,-7.2,30.18,SSW,203,0.0,0.4,22,0.00,,,0.00,WUHU216HW,2013-10-04 13:42:00,
2013-10-04 07:47:00,26.8,-7.2,30.18,SSW,203,0.0,0.0,22,0.00,,,0.00,WUHU216HW,2013-10-04 13:47:00,
2013-10-04 07:52:00,26.8,-8.0,30.18,SSW,203,0.0,0.0,21,0.00,,,0.00,WUHU216HW,2013-10-04 13:52:00,
2013-10-04 07:57:00,27.0,-8.7,30.18,SSW,203,0.0,0.0,20,0.00,,,0.00,WUHU216HW,2013-10-04 13:57:00,
2013-10-04 08:02:00,27.0,-8.7,30.18,SSW,203,0.2,0.4,20,0.00,,,0.00,WUHU216HW,2013-10-04 14:02:00,
2013-10-04 08:07:00,27.0,-8.7,30.18,SSW,203,0.4,0.4,20,0.00,,,0.00,WUHU216HW,2013-10-04 14:07:00,
2013-10-04 08:12:00,27.0,-8.7,30.18,SSW,203,0.4,0.4,20,0.00,,,0.00,WUHU216HW,2013-10-04 14:12:00,
2013-10-04 08:17:00,27.2,-7.7,30.18,SSW,203,0.4,0.7,21,0.00,,,0.00,WUHU216HW,2013-10-04 14:17:00,
2013-10-04 08:22:00,27.2,-7.7,30.18,SSW,203,0.4,0.7,21,0.00,,,0.00,WUHU216HW,2013-10-04 14:22:00,
2013-10-04 08:27:00,27.2,-8.5,30.18,SSW,203,0.2,0.4,20,0.00,,,0.00,WUHU216HW,2013-10-04 14:27:00,
2013-10-04 08:32:00,27.4,-8.5,30.19,SSW,203,0.0,0.4,20,0.00,,,0.00,WUHU216HW,2013-10-04 14:32:00,
2013-10-04 08:37:00,27.4,-8.5,30.19,SSW,203,0.0,0.2,20,0.00,,,0.00,WUHU216HW,2013-10-04 14:37:00,
2013-10-04 08:42:00,27.5,-11.0,30.19,SSW,203,0.0,0.0,18,0.00,,,0.00,WUHU216HW,2013-10-04 14:42:00,
2013-10-04 08:47:00,27.7,-10.9,30.19,SSW,203,0.0,0.4,18,0.00,,,0.00,WUHU216HW,2013-10-04 14:47:00,
2013-10-04 08:52:00,27.7,-10.9,30.19,SSW,203,0.0,0.4,18,0.00,,,0.00,WUHU216HW,2013-10-04 14:52:00,
2013-10-04 08:57:00,28.1,-12.0,30.19,SSW,203,0.7,0.7,17,0.00,,,0.00,WUHU216HW,2013-10-04 14:57:00,
2013-10-04 09:02:00,28.3,-10.4,30.19,SSW,203,0.0,0.7,18,0.00,,,0.00,WUHU216HW,2013-10-04 15:02:00,
2013-10-04 09:07:00,28.4,-11.7,30.19,SSW,203,0.0,0.4,17,0.00,,,0.00,WUHU216HW,2013-10-04 15:07:00,
2013-10-04 09:12:00,28.8,-10.0,30.19,SSW,203,0.0,0.2,18,0.00,,,0.00,WUHU216HW,2013-10-04 15:12:00,
2013-10-04 09:17:00,29.0,-9.9,30.19,SSW,203,0.4,0.4,18,0.00,,,0.00,WUHU216HW,2013-10-04 15:17:00,
2013-10-04 09:22:00,29.2,-7.0,30.19,SSW,203,1.1,1.1,20,0.00,,,0.00,WUHU216HW,2013-10-04 15:22:00,
2013-10-04 09:27:00,29.5,-5.8,30.19,SSW,203,0.4,1.1,21,0.00,,,0.00,WUHU216HW,2013-10-04 15:27:00,
2013-10-04 09:32:00,29.7,-5.7,30.19,SSW,203,0.0,0.7,21,0.00,,,0.00,WUHU216HW,2013-10-04 15:32:00,
2013-10-04 09:37:00,29.9,-5.6,30.19,SSW,203,0.0,0.4,21,0.00,,,0.00,WUHU216HW,2013-10-04 15:37:00,
2013-10-04 09:42:00,31.0,-4.6,30.19,SSW,203,0.0,0.4,21,0.00,,,0.00,WUHU216HW,2013-10-04 15:42:00,
2013-10-04 09:47:00,31.3,0.9,30.19,SSW,203,0.2,0.2,27,0.00,,,0.00,WUHU216HW,2013-10-04 15:47:00,
2013-10-04 09:52:00,31.5,3.7,30.19,SSW,203,0.0,0.9,30,0.00,,,0.00,WUHU216HW,2013-10-04 15:52:00,
2013-10-04 09:57:00,31.9,7.7,30.19,SSW,203,0.4,0.9,36,0.00,,,0.00,WUHU216HW,2013-10-04 15:57:00,
2013-10-04 10:02:00,31.9,9.0,30.19,SSW,203,1.1,1.1,38,0.00,,,0.00,WUHU216HW,2013-10-04 16:02:00,
2013-10-04 10:07:00,32.0,8.6,30.19,SSW,203,0.4,1.1,37,0.00,,,0.00,WUHU216HW,2013-10-04 16:07:00,
2013-10-04 10:12:00,32.8,9.8,30.19,NE,45,0.9,0.9,38,0.00,,,0.00,WUHU216HW,2013-10-04 16:12:00,
2013-10-04 10:17:00,33.5,9.2,30.19,NE,45,0.0,0.9,36,0.00,,,0.00,WUHU216HW,2013-10-04 16:17:00,
2013-10-04 10:22:00,34.2,9.8,30.19,North,0,0.0,0.9,36,0.00,,,0.00,WUHU216HW,2013-10-04 16:22:00,
2013-10-04 10:27:00,34.9,11.1,30.19,North,0,0.0,0.9,37,0.00,,,0.00,WUHU216HW,2013-10-04 16:27:00,
2013-10-04 10:32:00,36.0,19.3,30.19,NNE,23,0.9,1.6,50,0.00,,,0.00,WUHU216HW,2013-10-04 16:32:00,
2013-10-04 10:37:00,36.7,18.3,30.19,NNE,23,0.2,1.6,47,0.00,,,0.00,WUHU216HW,2013-10-04 16:37:00,
2013-10-04 10:42:00,36.7,21.2,30.18,NNE,23,0.4,1.1,53,0.00,,,0.00,WUHU216HW,2013-10-04 16:42:00,
2013-10-04 10:47:00,37.1,23.7,30.18,NE,45,1.8,1.8,58,0.00,,,0.00,WUHU216HW,2013-10-04 16:47:00,
2013-10-04 10:52:00,38.9,21.3,30.18,North,0,0.0,1.8,49,0.00,,,0.00,WUHU216HW,2013-10-04 16:52:00,
2013-10-04 10:57:00,40.9,26.7,30.18,NNE,23,0.7,1.8,57,0.00,,,0.00,WUHU216HW,2013-10-04 16:57:00,
2013-10-04 11:02:00,42.1,26.7,30.18,ENE,68,0.9,2.0,54,0.00,,,0.00,WUHU216HW,2013-10-04 17:02:00,
2013-10-04 11:07:00,43.7,27.7,30.18,WSW,248,0.0,2.2,53,0.00,,,0.00,WUHU216HW,2013-10-04 17:07:00,
2013-10-04 11:12:00,47.5,29.8,30.18,SSW,203,0.0,2.2,50,0.00,,,0.00,WUHU216HW,2013-10-04 17:12:00,
2013-10-04 11:17:00,49.3,33.8,30.18,SE,135,0.4,0.7,55,0.00,,,0.00,WUHU216HW,2013-10-04 17:17:00,
2013-10-04 11:22:00,50.2,34.2,30.18,SSW,203,0.2,0.7,54,0.00,,,0.00,WUHU216HW,2013-10-04 17:22:00,
2013-10-04 11:27:00,51.8,35.6,30.17,East,90,0.0,0.2,54,0.00,,,0.00,WUHU216HW,2013-10-04 17:27:00,
2013-10-04 11:32:00,52.9,36.6,30.18,NE,45,0.2,1.1,54,0.00,,,0.00,WUHU216HW,2013-10-04 17:32:00,
2013-10-04 11:37:00,50.6,32.1,30.18,NE,45,1.8,1.8,49,0.00,,,0.00,WUHU216HW,2013-10-04 17:37:00,
2013-10-04 12:02:00,50.8,32.9,30.18,ENE,68,1.1,2.2,50,0.00,,,0.00,WUHU216HW,2013-10-04 18:02:00,
2013-10-04 12:07:00,50.6,33.1,30.19,NNE,23,0.4,1.8,51,0.00,,,0.00,WUHU216HW,2013-10-04 18:07:00,
2013-10-04 12:12:00,51.1,34.1,30.19,NE,45,0.0,1.8,52,0.00,,,0.00,WUHU216HW,2013-10-04 18:12:00,
2013-10-04 12:17:00,52.7,33.6,30.19,NNE,23,1.8,1.8,48,0.00,,,0.00,WUHU216HW,2013-10-04 18:17:00,
2013-10-04 12:22:00,52.0,34.0,30.19,North,0,0.4,1.8,50,0.00,,,0.00,WUHU216HW,2013-10-04 18:22:00,
2013-10-04 12:27:00,52.0,33.5,30.19,NNE,23,0.2,1.3,49,0.00,,,0.00,WUHU216HW,2013-10-04 18:27:00,
2013-10-04 12:32:00,52.0,33.5,30.20,NE,45,0.4,1.3,49,0.00,,,0.00,WUHU216HW,2013-10-04 18:32:00,
2013-10-04 12:37:00,52.9,34.3,30.19,SSE,158,0.0,2.7,49,0.00,,,0.00,WUHU216HW,2013-10-04 18:37:00,
2013-10-04 12:42:00,52.6,33.4,30.19,NE,45,0.7,2.9,48,0.00,,,0.00,WUHU216HW,2013-10-04 18:42:00,
2013-10-04 12:47:00,52.2,34.2,30.19,NW,315,0.0,2.9,50,0.00,,,0.00,WUHU216HW,2013-10-04 18:47:00,
2013-10-04 12:52:00,52.2,32.5,30.19,NNE,23,1.8,2.5,47,0.00,,,0.00,WUHU216HW,2013-10-04 18:52:00,
2013-10-04 12:57:00,51.8,33.3,30.18,NE,45,0.7,2.5,49,0.00,,,0.00,WUHU216HW,2013-10-04 18:57:00,
2013-10-04 13:02:00,53.1,33.3,30.19,North,0,2.0,2.2,47,0.00,,,0.00,WUHU216HW,2013-10-04 19:02:00,
2013-10-04 13:07:00,52.4,32.1,30.19,NNE,23,1.8,2.2,46,0.00,,,0.00,WUHU216HW,2013-10-04 19:07:00,
2013-10-04 13:12:00,52.2,33.6,30.18,ESE,113,0.4,2.0,49,0.00,,,0.00,WUHU216HW,2013-10-04 19:12:00,
2013-10-04 13:17:00,52.9,32.6,30.18,NW,315,1.1,2.0,46,0.00,,,0.00,WUHU216HW,2013-10-04 19:17:00,
2013-10-04 13:22:00,53.5,33.0,30.18,NW,315,1.1,2.5,46,0.00,,,0.00,WUHU216HW,2013-10-04 19:22:00,
2013-10-04 13:27:00,52.7,32.4,30.18,West,270,0.9,2.5,46,0.00,,,0.00,WUHU216HW,2013-10-04 19:27:00,
2013-10-04 13:32:00,55.1,36.2,30.18,NNE,23,0.0,1.8,49,0.00,,,0.00,WUHU216HW,2013-10-04 19:32:00,
2013-10-04 13:37:00,57.1,34.7,30.18,SW,225,1.6,2.7,43,0.00,,,0.00,WUHU216HW,2013-10-04 19:37:00,
2013-10-04 13:42:00,55.4,33.8,30.18,North,0,0.7,4.0,44,0.00,,,0.00,WUHU216HW,2013-10-04 19:42:00,
2013-10-04 13:47:00,55.3,34.7,30.18,NNE,23,1.6,4.0,46,0.00,,,0.00,WUHU216HW,2013-10-04 19:47:00,
2013-10-04 13:53:00,56.0,34.8,30.18,South,180,0.7,2.2,45,0.00,,,0.00,WUHU216HW,2013-10-04 19:53:00,
2013-10-04 13:58:00,55.4,33.2,30.18,NE,45,2.0,2.9,43,0.00,,,0.00,WUHU216HW,2013-10-04 19:58:00,
2013-10-04 14:03:00,54.4,33.8,30.17,NW,315,0.0,2.9,46,0.00,,,0.00,WUHU216HW,2013-10-04 20:03:00,
2013-10-04 14:08:00,54.4,33.8,30.17,NE,45,0.9,1.6,46,0.00,,,0.00,WUHU216HW,2013-10-04 20:08:00,
2013-10-04 14:13:00,55.4,35.4,30.17,NNE,23,1.8,4.0,47,0.00,,,0.00,WUHU216HW,2013-10-04 20:13:00,
2013-10-04 14:18:00,55.4,34.3,30.17,NE,45,0.4,5.1,45,0.00,,,0.00,WUHU216HW,2013-10-04 20:18:00,
2013-10-04 14:23:00,55.8,33.5,30.17,NNW,338,0.4,5.1,43,0.00,,,0.00,WUHU216HW,2013-10-04 20:23:00,
2013-10-04 14:28:00,56.7,34.9,30.17,NE,45,1.8,2.2,44,0.00,,,0.00,WUHU216HW,2013-10-04 20:28:00,
2013-10-04 14:33:00,55.8,33.5,30.16,ENE,68,0.7,4.0,43,0.00,,,0.00,WUHU216HW,2013-10-04 20:33:00,
2013-10-04 14:38:00,55.8,33.5,30.17,NNE,23,1.6,4.0,43,0.00,,,0.00,WUHU216HW,2013-10-04 20:38:00,
2013-10-04 14:43:00,54.5,32.4,30.16,North,0,1.1,2.5,43,0.00,,,0.00,WUHU216HW,2013-10-04 20:43:00,
2013-10-04 14:48:00,54.7,33.7,30.16,NNE,23,1.8,2.5,45,0.00,,,0.00,WUHU216HW,2013-10-04 20:48:00,
2013-10-04 14:53:00,54.9,33.2,30.15,SSW,203,1.1,2.0,44,0.00,,,0.00,WUHU216HW,2013-10-04 20:53:00,
2013-10-04 14:58:00,56.5,34.2,30.15,NNE,23,0.2,1.8,43,0.00,,,0.00,WUHU216HW,2013-10-04 20:58:00,
2013-10-04 15:03:00,55.4,34.3,30.15,NNE,23,0.0,1.8,45,0.00,,,0.00,WUHU216HW,2013-10-04 21:03:00,
2013-10-04 15:08:00,56.2,34.4,30.15,North,0,1.8,2.9,44,0.00,,,0.00,WUHU216HW,2013-10-04 21:08:00,
2013-10-04 15:13:00,55.8,34.7,30.15,NE,45,1.1,2.9,45,0.00,,,0.00,WUHU216HW,2013-10-04 21:13:00,
2013-10-04 15:18:00,54.7,33.1,30.15,ENE,68,2.2,4.0,44,0.00,,,0.00,WUHU216HW,2013-10-04 21:18:00,
2013-10-04 15:23:00,53.5,33.0,30.15,North,0,0.2,4.0,46,0.00,,,0.00,WUHU216HW,2013-10-04 21:23:00,
2013-10-04 15:28:00,52.9,33.7,30.15,SE,135,1.8,1.8,48,0.00,,,0.00,WUHU216HW,2013-10-04 21:28:00,
2013-10-04 15:33:00,52.2,32.5,30.15,SSE,158,0.4,2.5,47,0.00,,,0.00,WUHU216HW,2013-10-04 21:33:00,
2013-10-04 15:38:00,52.7,32.9,30.15,NNW,338,1.3,2.5,47,0.00,,,0.00,WUHU216HW,2013-10-04 21:38:00,
2013-10-04 15:43:00,51.1,32.7,30.15,NNE,23,1.3,2.2,49,0.00,,,0.00,WUHU216HW,2013-10-04 21:43:00,
2013-10-04 15:47:00,50.4,31.4,30.15,North,0,1.6,2.2,48,0.00,,,0.00,WUHU216HW,2013-10-04 21:47:00,
2013-10-04 15:52:00,49.7,32.3,30.14,South,180,0.0,1.8,51,0.00,,,0.00,WUHU216HW,2013-10-04 21:52:00,
2013-10-04 15:57:00,49.1,31.3,30.14,SE,135,0.4,1.6,50,0.00,,,0.00,WUHU216HW,2013-10-04 21:57:00,
2013-10-04 16:02:00,48.8,31.0,30.14,NNW,338,1.1,1.3,50,0.00,,,0.00,WUHU216HW,2013-10-04 22:02:00,
2013-10-04 16:08:00,48.2,30.9,30.14,ENE,68,0.4,1.1,51,0.00,,,0.00,WUHU216HW,2013-10-04 22:08:00,
2013-10-04 16:13:00,48.2,30.9,30.14,WSW,248,1.1,1.8,51,0.00,,,0.00,WUHU216HW,2013-10-04 22:13:00,
2013-10-04 16:18:00,48.1,30.2,30.14,North,0,0.4,1.8,50,0.00,,,0.00,WUHU216HW,2013-10-04 22:18:00,
2013-10-04 16:23:00,48.2,30.4,30.14,WSW,248,0.0,0.9,50,0.00,,,0.00,WUHU216HW,2013-10-04 22:23:00,
2013-10-04 16:28:00,48.2,29.9,30.13,ENE,68,0.0,1.6,49,0.00,,,0.00,WUHU216HW,2013-10-04 22:28:00,
2013-10-04 16:32:00,48.2,29.9,30.13,SW,225,0.0,1.6,49,0.00,,,0.00,WUHU216HW,2013-10-04 22:32:00,
2013-10-04 16:38:00,48.2,28.8,30.13,West,270,0.0,1.8,47,0.00,,,0.00,WUHU216HW,2013-10-04 22:38:00,
2013-10-04 16:43:00,48.1,28.1,30.13,NE,45,0.2,2.0,46,0.00,,,0.00,WUHU216HW,2013-10-04 22:43:00,
2013-10-04 16:48:00,47.7,28.9,30.14,ESE,113,0.9,4.3,48,0.00,,,0.00,WUHU216HW,2013-10-04 22:48:00,
2013-10-04 16:53:00,47.5,30.3,30.13,North,0,1.8,4.3,51,0.00,,,0.00,WUHU216HW,2013-10-04 22:53:00,
2013-10-04 16:58:00,46.8,30.5,30.13,North,0,0.0,1.8,53,0.00,,,0.00,WUHU216HW,2013-10-04 22:58:00,
2013-10-04 17:03:00,46.3,30.4,30.14,NNW,338,0.0,1.1,54,0.00,,,0.00,WUHU216HW,2013-10-04 23:03:00,
2013-10-04 17:08:00,45.9,30.6,30.13,North,0,0.4,0.7,55,0.00,,,0.00,WUHU216HW,2013-10-04 23:08:00,
2013-10-04 17:13:00,45.4,30.5,30.13,North,0,0.4,1.1,56,0.00,,,0.00,WUHU216HW,2013-10-04 23:13:00,
2013-10-04 17:18:00,45.4,30.5,30.13,NNW,338,0.0,1.1,56,0.00,,,0.00,WUHU216HW,2013-10-04 23:18:00,
2013-10-04 17:23:00,45.4,31.0,30.13,NNW,338,0.7,0.7,57,0.00,,,0.00,WUHU216HW,2013-10-04 23:23:00,
2013-10-04 17:28:00,45.0,30.3,30.13,NNW,338,0.4,0.7,56,0.00,,,0.00,WUHU216HW,2013-10-04 23:28:00,
2013-10-04 17:33:00,44.8,29.6,30.13,NNE,23,0.0,0.4,55,0.00,,,0.00,WUHU216HW,2013-10-04 23:33:00,
2013-10-04 17:38:00,44.5,30.2,30.13,NW,315,0.4,0.7,57,0.00,,,0.00,WUHU216HW,2013-10-04 23:38:00,
2013-10-04 17:43:00,44.3,29.5,30.13,North,0,0.0,0.7,56,0.00,,,0.00,WUHU216HW,2013-10-04 23:43:00,
2013-10-04 17:48:00,43.9,29.2,30.13,North,0,0.0,0.7,56,0.00,,,0.00,WUHU216HW,2013-10-04 23:48:00,
2013-10-04 17:53:00,43.7,29.4,30.12,WNW,293,0.0,0.4,57,0.00,,,0.00,WUHU216HW,2013-10-04 23:53:00,
2013-10-04 17:58:00,43.0,28.8,30.13,SW,225,0.0,0.9,57,0.00,,,0.00,WUHU216HW,2013-10-04 23:58:00,
2013-10-04 18:03:00,42.3,28.1,30.13,South,180,0.0,1.8,57,0.00,,,0.00,WUHU216HW,2013-10-05 00:03:00,
2013-10-04 18:08:00,41.4,26.8,30.13,South,180,0.7,1.8,56,0.00,,,0.00,WUHU216HW,2013-10-05 00:08:00,
2013-10-04 18:13:00,40.7,25.2,30.12,South,180,0.4,1.1,54,0.00,,,0.00,WUHU216HW,2013-10-05 00:13:00,
2013-10-04 18:18:00,40.3,25.3,30.13,South,180,1.3,1.3,55,0.00,,,0.00,WUHU216HW,2013-10-05 00:18:00,
2013-10-04 18:23:00,39.6,25.1,30.13,SSW,203,0.0,1.6,56,0.00,,,0.00,WUHU216HW,2013-10-05 00:23:00,
2013-10-04 18:28:00,39.2,23.9,30.12,SSW,203,0.9,1.6,54,0.00,,,0.00,WUHU216HW,2013-10-05 00:28:00,
2013-10-04 18:33:00,38.7,23.4,30.12,SSW,203,0.0,1.1,54,0.00,,,0.00,WUHU216HW,2013-10-05 00:33:00,
2013-10-04 18:38:00,38.5,22.0,30.12,SSW,203,0.9,0.9,51,0.00,,,0.00,WUHU216HW,2013-10-05 00:38:00,
2013-10-04 18:43:00,38.0,21.4,30.12,SSW,203,1.1,1.3,51,0.00,,,0.00,WUHU216HW,2013-10-05 00:43:00,
2013-10-04 18:48:00,37.8,20.4,30.12,SSW,203,0.9,1.3,49,0.00,,,0.00,WUHU216HW,2013-10-05 00:48:00,
2013-10-04 18:53:00,37.3,21.3,30.12,SSW,203,0.0,1.6,52,0.00,,,0.00,WUHU216HW,2013-10-05 00:53:00,
2013-10-04 18:58:00,37.1,18.6,30.12,SSW,203,1.1,1.8,47,0.00,,,0.00,WUHU216HW,2013-10-05 00:58:00,
2013-10-04 19:03:00,36.5,18.6,30.12,SSW,203,0.0,1.8,48,0.00,,,0.00,WUHU216HW,2013-10-05 01:03:00,
2013-10-04 19:08:00,36.4,17.5,30.12,SSW,203,0.0,1.1,46,0.00,,,0.00,WUHU216HW,2013-10-05 01:08:00,
2013-10-04 19:13:00,36.4,15.4,30.12,SSW,203,0.4,0.7,42,0.00,,,0.00,WUHU216HW,2013-10-05 01:13:00,
2013-10-04 19:18:00,36.0,15.0,30.12,SSW,203,0.7,1.1,42,0.00,,,0.00,WUHU216HW,2013-10-05 01:18:00,
2013-10-04 19:23:00,35.6,14.2,30.12,SSW,203,0.7,1.1,41,0.00,,,0.00,WUHU216HW,2013-10-05 01:23:00,
2013-10-04 19:28:00,35.5,12.3,30.12,SSW,203,0.4,0.9,38,0.00,,,0.00,WUHU216HW,2013-10-05 01:28:00,
2013-10-04 19:33:00,35.3,12.7,30.12,SSW,203,0.4,0.4,39,0.00,,,0.00,WUHU216HW,2013-10-05 01:33:00,
2013-10-04 19:38:00,35.1,11.3,30.12,SSW,203,0.4,0.4,37,0.00,,,0.00,WUHU216HW,2013-10-05 01:38:00,
2013-10-04 19:43:00,34.9,11.1,30.12,SSW,203,0.4,0.7,37,0.00,,,0.00,WUHU216HW,2013-10-05 01:43:00,
2013-10-04 19:48:00,34.7,10.4,30.12,SSW,203,0.4,0.7,36,0.00,,,0.00,WUHU216HW,2013-10-05 01:48:00,
2013-10-04 19:53:00,34.4,11.9,30.12,SSW,203,0.0,0.4,39,0.00,,,0.00,WUHU216HW,2013-10-05 01:53:00,
2013-10-04 19:58:00,34.2,9.2,30.12,SSW,203,0.7,0.7,35,0.00,,,0.00,WUHU216HW,2013-10-05 01:58:00,
2013-10-04 20:03:00,34.0,10.4,30.12,SSW,203,0.0,0.7,37,0.00,,,0.00,WUHU216HW,2013-10-05 02:03:00,
2013-10-04 20:08:00,33.8,6.4,30.12,SSW,203,0.4,0.9,31,0.00,,,0.00,WUHU216HW,2013-10-05 02:08:00,
2013-10-04 20:13:00,33.7,6.2,30.12,SSW,203,0.0,0.9,31,0.00,,,0.00,WUHU216HW,2013-10-05 02:13:00,
2013-10-04 20:18:00,33.5,6.7,30.12,SSW,203,0.7,1.1,32,0.00,,,0.00,WUHU216HW,2013-10-05 02:18:00,
2013-10-04 20:23:00,33.5,7.3,30.12,SSW,203,0.0,1.1,33,0.00,,,0.00,WUHU216HW,2013-10-05 02:23:00,
2013-10-04 20:28:00,33.3,6.6,30.12,SSW,203,0.0,1.8,32,0.00,,,0.00,WUHU216HW,2013-10-05 02:28:00,
2013-10-04 20:33:00,33.3,6.6,30.12,SSW,203,0.4,1.8,32,0.00,,,0.00,WUHU216HW,2013-10-05 02:33:00,
2013-10-04 20:38:00,33.3,5.3,30.12,SSW,203,0.4,0.7,30,0.00,,,0.00,WUHU216HW,2013-10-05 02:38:00,
2013-10-04 20:43:00,33.1,5.1,30.12,SSW,203,0.7,0.7,30,0.00,,,0.00,WUHU216HW,2013-10-05 02:43:00,
2013-10-04 20:48:00,33.1,5.1,30.12,SSW,203,0.9,0.9,30,0.00,,,0.00,WUHU216HW,2013-10-05 02:48:00,
2013-10-04 20:53:00,33.1,4.2,30.13,SSW,203,0.7,0.9,29,0.00,,,0.00,WUHU216HW,2013-10-05 02:53:00,
2013-10-04 20:58:00,33.1,4.2,30.13,SSW,203,0.9,0.9,29,0.00,,,0.00,WUHU216HW,2013-10-05 02:58:00,
2013-10-04 21:03:00,32.9,5.6,30.13,SSW,203,0.0,0.9,31,0.00,,,0.00,WUHU216HW,2013-10-05 03:03:00,
2013-10-04 21:08:00,32.9,5.6,30.13,SSW,203,0.7,1.3,31,0.00,,,0.00,WUHU216HW,2013-10-05 03:08:00,
2013-10-04 21:13:00,32.9,3.3,30.13,SSW,203,0.7,1.3,28,0.00,,,0.00,WUHU216HW,2013-10-05 03:13:00,
2013-10-04 21:18:00,32.9,3.3,30.13,SSW,203,0.4,0.9,28,0.00,,,0.00,WUHU216HW,2013-10-05 03:18:00,
2013-10-04 21:23:00,32.9,5.6,30.13,SSW,203,0.4,1.1,31,0.00,,,0.00,WUHU216HW,2013-10-05 03:23:00,
2013-10-04 21:28:00,32.8,4.8,30.14,SSW,203,0.4,1.3,30,0.00,,,0.00,WUHU216HW,2013-10-05 03:28:00,
2013-10-04 21:33:00,32.8,6.0,30.14,SSW,203,0.0,1.3,32,0.00,,,0.00,WUHU216HW,2013-10-05 03:33:00,
2013-10-04 21:38:00,32.6,7.1,30.14,SSW,203,0.2,1.8,34,0.00,,,0.00,WUHU216HW,2013-10-05 03:38:00,
2013-10-04 21:43:00,32.6,7.7,30.14,SSW,203,0.4,1.8,35,0.00,,,0.00,WUHU216HW,2013-10-05 03:43:00,
2013-10-04 21:48:00,32.8,4.0,30.14,SSW,203,0.4,1.1,29,0.00,,,0.00,WUHU216HW,2013-10-05 03:48:00,
2013-10-04 21:53:00,32.8,6.0,30.13,SW,225,0.9,1.3,32,0.00,,,0.00,WUHU216HW,2013-10-05 03:53:00,
2013-10-04 21:58:00,32.9,3.3,30.13,SSW,203,0.4,1.3,28,0.00,,,0.00,WUHU216HW,2013-10-05 03:58:00,
2013-10-04 22:01:00,32.9,4.1,30.13,SSW,203,0.9,1.1,29,0.00,,,0.00,WUHU216HW,2013-10-05 04:01:00,
2013-10-04 22:06:00,33.1,4.2,30.13,SW,225,0.0,0.9,29,0.00,,,0.00,WUHU216HW,2013-10-05 04:06:00,
2013-10-04 22:11:00,33.1,5.1,30.13,SSW,203,0.7,0.7,30,0.00,,,0.00,WUHU216HW,2013-10-05 04:11:00,
2013-10-04 22:16:00,33.1,6.4,30.13,SSW,203,0.0,0.7,32,0.00,,,0.00,WUHU216HW,2013-10-05 04:16:00,
2013-10-04 22:21:00,32.9,11.3,30.13,SSW,203,0.9,0.9,40,0.00,,,0.00,WUHU216HW,2013-10-05 04:21:00,
2013-10-04 22:26:00,32.8,9.8,30.13,SSW,203,0.0,0.9,38,0.00,,,0.00,WUHU216HW,2013-10-05 04:26:00,
2013-10-04 22:31:00,32.6,9.6,30.13,SSW,203,0.0,0.0,38,0.00,,,0.00,WUHU216HW,2013-10-05 04:31:00,
2013-10-04 22:36:00,32.4,10.2,30.13,SSW,203,0.0,0.0,39,0.00,,,0.00,WUHU216HW,2013-10-05 04:36:00,
2013-10-04 22:41:00,32.2,10.0,30.12,SSW,203,0.0,0.0,39,0.00,,,0.00,WUHU216HW,2013-10-05 04:41:00,
2013-10-04 22:46:00,32.0,10.4,30.12,SSW,203,0.0,0.0,40,0.00,,,0.00,WUHU216HW,2013-10-05 04:46:00,
2013-10-04 22:51:00,32.0,9.8,30.12,SSW,203,0.0,0.7,39,0.00,,,0.00,WUHU216HW,2013-10-05 04:51:00,
2013-10-04 22:56:00,32.0,8.6,30.12,SSW,203,0.0,0.7,37,0.00,,,0.00,WUHU216HW,2013-10-05 04:56:00,
2013-10-04 23:01:00,32.0,8.6,30.12,SSW,203,0.0,0.0,37,0.00,,,0.00,WUHU216HW,2013-10-05 05:01:00,
2013-10-04 23:06:00,31.9,8.4,30.12,SSW,203,0.0,0.4,37,0.00,,,0.00,WUHU216HW,2013-10-05 05:06:00,
2013-10-04 23:11:00,31.9,8.4,30.12,SSW,203,0.2,1.1,37,0.00,,,0.00,WUHU216HW,2013-10-05 05:11:00,
2013-10-04 23:16:00,31.7,8.2,30.12,SSW,203,0.0,1.1,37,0.00,,,0.00,WUHU216HW,2013-10-05 05:16:00,
2013-10-04 23:21:00,31.7,8.2,30.12,SSW,203,0.0,0.9,37,0.00,,,0.00,WUHU216HW,2013-10-05 05:21:00,
2013-10-04 23:26:00,31.5,8.1,30.11,SSW,203,0.4,0.4,37,0.00,,,0.00,WUHU216HW,2013-10-05 05:26:00,
2013-10-04 23:31:00,31.5,7.5,30.11,SSW,203,0.0,0.4,36,0.00,,,0.00,WUHU216HW,2013-10-05 05:31:00,
2013-10-04 23:36:00,31.7,7.6,30.11,SSW,203,0.4,0.4,36,0.00,,,0.00,WUHU216HW,2013-10-05 05:36:00,
2013-10-04 23:41:00,31.7,7.6,30.11,SSW,203,0.0,1.3,36,0.00,,,0.00,WUHU216HW,2013-10-05 05:41:00,
2013-10-04 23:46:00,31.7,8.2,30.11,SSW,203,0.7,1.3,37,0.00,,,0.00,WUHU216HW,2013-10-05 05:46:00,
2013-10-04 23:51:00,31.5,8.7,30.11,SW,225,0.2,1.1,38,0.00,,,0.00,WUHU216HW,2013-10-05 05:51:00,
2013-10-04 23:56:00,31.5,8.1,30.11,South,180,0.0,2.0,37,0.00,,,0.00,WUHU216HW,2013-10-05 05:56:00,